Time;durP1;ratioP1;P1;durP2;ratioP2;P2;SDS_P1;SDS_P2;PMS_P1;PMS_P2;Temp;Humidity;BMP_temperature;BMP_pressure;BME280_temperature;BME280_humidity;BME280_pressure;Samples;Min_cycle;Max_cycle;Signal;HPM_P1;HPM_P2
2023/06/11 00:02:21;;;;;;;18.60;4.67;;;;;;;25.09;47.72;99350.59;1820639;79;21295;-81
2023/06/11 00:05:27;;;;;;;9.58;5.08;;;;;;;25.12;47.75;99338.80;1817073;79;21562;-81
2023/06/11 00:08:31;;;;;;;17.67;4.62;;;;;;;25.12;47.85;99352.78;1765854;81;21284;-81
2023/06/11 00:11:41;;;;;;;10.30;4.53;;;;;;;25.10;48.02;99356.45;1773994;80;21584;-81
2023/06/11 00:14:46;;;;;;;7.83;4.15;;;;;;;25.17;47.92;99354.70;1797770;79;21303;-81
2023/06/11 00:17:52;;;;;;;8.50;4.30;;;;;;;25.16;47.99;99353.03;1800390;79;21331;-81
2023/06/11 00:20:58;;;;;;;9.53;4.67;;;;;;;25.06;48.20;99347.52;1800005;79;21315;-81
2023/06/11 00:24:04;;;;;;;16.75;4.15;;;;;;;24.97;48.51;99336.96;1799844;79;21968;-81
2023/06/11 00:27:10;;;;;;;10.98;4.55;;;;;;;24.96;48.66;99339.49;1800298;79;21307;-81
2023/06/11 00:30:16;;;;;;;10.25;4.33;;;;;;;25.00;48.55;99339.75;1800214;79;21295;-81
2023/06/11 00:33:23;;;;;;;11.83;4.70;;;;;;;25.02;48.39;99334.67;1800366;79;21881;-81
2023/06/11 00:36:32;;;;;;;14.20;5.03;;;;;;;25.07;48.36;99336.05;1849065;76;21316;-81
2023/06/11 00:39:38;;;;;;;12.90;4.50;;;;;;;25.12;48.29;99326.20;1817001;79;21322;-81
2023/06/11 00:42:49;;;;;;;10.85;3.87;;;;;;;25.20;48.16;99328.36;1803268;79;21288;-80
2023/06/11 00:45:54;;;;;;;13.93;4.35;;;;;;;24.98;48.71;99322.41;1796268;80;21347;-81
2023/06/11 00:49:01;;;;;;;7.40;4.22;;;;;;;24.96;49.02;99312.92;1797610;80;21300;-80
2023/06/11 00:52:09;;;;;;;10.18;4.40;;;;;;;24.93;49.15;99302.88;1797185;80;21343;-80
2023/06/11 00:55:17;;;;;;;14.45;4.58;;;;;;;25.05;48.78;99313.12;1796873;80;21308;-80
2023/06/11 00:58:23;;;;;;;10.70;4.30;;;;;;;25.06;48.70;99303.59;1798367;80;21177;-81
2023/06/11 01:01:35;;;;;;;10.08;3.95;;;;;;;24.97;48.85;99303.39;1798016;80;21922;-81
2023/06/11 01:04:41;;;;;;;12.78;4.15;;;;;;;24.87;49.24;99306.87;1797358;80;21319;-80
2023/06/11 01:07:55;;;;;;;18.67;4.75;;;;;;;24.79;49.49;99315.32;1797339;78;21315;-80
2023/06/11 01:11:02;;;;;;;9.00;4.55;;;;;;;24.82;49.48;99297.13;1789926;79;21302;-80
2023/06/11 01:14:13;;;;;;;10.05;4.30;;;;;;;24.79;49.83;99310.30;1737784;82;21303;-80
2023/06/11 01:17:24;;;;;;;9.60;4.00;;;;;;;24.84;49.89;99304.11;1737753;82;21323;-80
2023/06/11 01:20:37;;;;;;;10.90;4.33;;;;;;;24.90;49.98;99307.69;1737951;82;21315;-80
2023/06/11 01:23:56;;;;;;;6.47;3.40;;;;;;;24.86;50.00;99306.61;1736479;82;21347;-81
2023/06/11 01:27:35;;;;;;;19.52;4.37;;;;;;;25.05;49.63;99312.28;1750459;81;21964;-81
2023/06/11 01:30:49;;;;;;;10.80;3.85;;;;;;;24.98;49.74;99302.83;1758400;81;21304;-81
2023/06/11 01:33:56;;;;;;;16.00;4.35;;;;;;;24.96;49.30;99303.70;1756975;81;21325;-81
2023/06/11 01:37:04;;;;;;;9.73;3.60;;;;;;;24.62;49.67;99293.97;1758495;81;21330;-81
2023/06/11 01:40:14;;;;;;;6.70;4.17;;;;;;;24.66;49.51;99288.90;1758220;81;21887;-81
2023/06/11 01:43:23;;;;;;;14.68;4.65;;;;;;;24.51;49.77;99283.42;1823529;78;21289;-81
2023/06/11 01:46:27;;;;;;;8.08;4.12;;;;;;;24.72;49.43;99284.09;1781933;80;21950;-81
2023/06/11 01:49:32;;;;;;;13.70;4.17;;;;;;;24.83;49.19;99276.42;1809748;78;21382;-81
2023/06/11 01:52:38;;;;;;;12.50;3.50;;;;;;;24.78;49.10;99271.72;1809609;77;21319;-81
2023/06/11 01:55:45;;;;;;;6.78;3.80;;;;;;;24.75;48.87;99269.53;1818609;78;21299;-80
2023/06/11 01:58:53;;;;;;;10.50;4.25;;;;;;;24.86;48.39;99267.45;1800283;79;21873;-80
2023/06/11 02:01:58;;;;;;;6.60;3.75;;;;;;;24.98;47.91;99267.86;1804578;79;21279;-80
2023/06/11 02:05:05;;;;;;;14.93;4.00;;;;;;;24.98;48.55;99312.61;1805550;79;21290;-80
2023/06/11 02:08:11;;;;;;;13.28;4.12;;;;;;;24.85;49.08;99314.73;1803202;79;21945;-80
2023/06/11 02:11:17;;;;;;;12.37;3.75;;;;;;;24.69;49.68;99313.45;1805554;79;21287;-79
2023/06/11 02:14:22;;;;;;;12.55;4.33;;;;;;;24.72;49.96;99307.85;1804342;79;21897;-80
2023/06/11 02:17:20;;;;;;;12.20;4.05;;;;;;;24.82;49.56;99302.72;1804188;79;21307;-80
2023/06/11 02:20:15;;;;;;;8.40;4.20;;;;;;;24.66;49.89;99318.25;1805763;79;21909;-80
2023/06/11 02:23:20;;;;;;;10.72;4.15;;;;;;;24.77;49.35;99327.94;1805554;79;21282;-80
2023/06/11 02:26:26;;;;;;;7.83;3.98;;;;;;;24.77;49.12;99331.57;1803845;78;21327;-80
2023/06/11 02:29:33;;;;;;;7.78;3.75;;;;;;;24.69;49.19;99337.78;1804618;79;21653;-80
2023/06/11 02:32:40;;;;;;;8.83;3.90;;;;;;;24.58;49.32;99336.22;1805606;79;21307;-80
2023/06/11 02:35:46;;;;;;;10.98;3.58;;;;;;;24.36;49.88;99342.21;1805503;79;21345;-80
2023/06/11 02:38:53;;;;;;;10.43;3.70;;;;;;;24.41;49.70;99333.82;1805554;79;21326;-81
2023/06/11 02:41:59;;;;;;;6.87;3.87;;;;;;;24.47;49.49;99333.51;1805651;79;21295;-80
2023/06/11 02:45:05;;;;;;;13.80;3.90;;;;;;;24.48;49.47;99328.75;1804244;79;21334;-80
2023/06/11 02:48:11;;;;;;;7.78;3.92;;;;;;;24.45;49.65;99348.89;1805669;79;21311;-80
2023/06/11 02:51:17;;;;;;;7.35;3.45;;;;;;;24.55;49.46;99348.80;1804282;79;21330;-80
2023/06/11 02:54:24;;;;;;;6.03;3.22;;;;;;;24.48;49.63;99349.14;1805666;79;21291;-81
2023/06/11 02:57:30;;;;;;;10.10;3.75;;;;;;;24.64;49.37;99347.05;1804545;79;21976;-80
2023/06/11 03:00:36;;;;;;;8.45;3.80;;;;;;;24.79;48.90;99353.64;1805777;79;21291;-80
2023/06/11 03:03:45;;;;;;;12.47;4.13;;;;;;;24.73;48.72;99355.08;1804686;79;21838;-81
2023/06/11 03:06:52;;;;;;;7.50;3.27;;;;;;;24.76;48.75;99352.84;1804155;79;21331;-80
2023/06/11 03:09:58;;;;;;;6.30;3.60;;;;;;;24.76;48.49;99348.66;1771681;79;21322;-80
2023/06/11 03:13:05;;;;;;;9.68;3.50;;;;;;;24.62;48.86;99349.31;1766061;81;21310;-80
2023/06/11 03:16:13;;;;;;;9.55;3.92;;;;;;;24.58;48.96;99351.02;1765925;81;21294;-80
2023/06/11 03:19:19;;;;;;;5.72;3.47;;;;;;;24.63;48.78;99357.14;1767084;81;21316;-81
2023/06/11 03:22:26;;;;;;;7.05;3.67;;;;;;;24.67;48.63;99353.47;1767571;81;21295;-81
2023/06/11 03:25:31;;;;;;;7.85;3.17;;;;;;;24.78;48.52;99360.36;1767567;81;21299;-81
2023/06/11 03:28:37;;;;;;;15.43;3.52;;;;;;;24.82;48.53;99358.66;1767651;81;21284;-81
2023/06/11 03:31:44;;;;;;;14.23;3.17;;;;;;;24.72;48.68;99366.56;1767514;81;21892;-81
2023/06/11 03:34:53;;;;;;;13.90;3.95;;;;;;;24.65;49.01;99347.88;1766823;81;21327;-81
2023/06/11 03:37:58;;;;;;;7.55;3.80;;;;;;;24.63;49.21;99355.17;1766537;81;21318;-81
2023/06/11 03:41:04;;;;;;;11.95;4.00;;;;;;;24.58;49.38;99359.98;1767500;81;21303;-81
2023/06/11 03:44:12;;;;;;;9.75;3.52;;;;;;;24.60;49.56;99360.50;1767573;81;21292;-81
2023/06/11 03:47:17;;;;;;;8.90;3.75;;;;;;;24.64;49.27;99368.02;1766889;81;21322;-80
2023/06/11 03:50:23;;;;;;;6.22;3.65;;;;;;;24.63;49.42;99363.56;1766658;81;21294;-80
2023/06/11 03:53:22;;;;;;;7.75;3.60;;;;;;;24.74;49.33;99369.33;1767679;81;21298;-81
2023/06/11 03:56:28;;;;;;;10.85;3.47;;;;;;;24.67;49.22;99366.05;1767379;81;21353;-81
2023/06/11 03:59:27;;;;;;;7.35;3.17;;;;;;;24.77;48.98;99371.28;1767564;81;21319;-81
2023/06/11 04:02:32;;;;;;;7.72;3.37;;;;;;;24.89;48.71;99373.12;1767269;81;21298;-81
2023/06/11 04:05:44;;;;;;;5.67;3.30;;;;;;;24.90;48.60;99372.84;1766473;81;21355;-81
2023/06/11 04:08:51;;;;;;;6.17;3.65;;;;;;;24.94;48.46;99369.73;1766049;81;21936;-81
2023/06/11 04:11:56;;;;;;;11.60;3.30;;;;;;;24.98;48.41;99365.23;1804199;79;21856;-81
2023/06/11 04:15:03;;;;;;;4.95;3.22;;;;;;;24.99;48.62;99371.08;1805609;79;21945;-81
2023/06/11 04:18:10;;;;;;;5.20;2.83;;;;;;;25.20;48.01;99377.33;1804156;79;21312;-81
2023/06/11 04:21:18;;;;;;;7.67;3.22;;;;;;;25.04;48.29;99371.59;1804603;79;21319;-80
2023/06/11 04:24:23;;;;;;;11.85;3.47;;;;;;;25.13;48.04;99376.03;1805739;79;21299;-81
2023/06/11 04:27:33;;;;;;;7.33;3.70;;;;;;;25.15;47.84;99384.37;1805477;79;21350;-81
2023/06/11 04:30:39;;;;;;;5.83;3.40;;;;;;;25.18;48.08;99377.38;1805605;79;21331;-80
2023/06/11 04:33:46;;;;;;;10.13;3.42;;;;;;;25.20;48.35;99380.12;1805604;79;21323;-81
2023/06/11 04:36:54;;;;;;;6.70;3.12;;;;;;;25.14;48.73;99377.13;1804380;79;21928;-81
2023/06/11 04:40:05;;;;;;;10.05;3.27;;;;;;;25.14;48.89;99381.89;1784571;79;21298;-81
2023/06/11 04:43:07;;;;;;;9.73;3.10;;;;;;;24.87;49.40;99380.41;1804326;79;21303;-81
2023/06/11 04:46:14;;;;;;;5.15;3.15;;;;;;;24.63;49.92;99382.30;1804264;79;21298;-81
2023/06/11 04:49:20;;;;;;;7.53;3.20;;;;;;;24.70;49.74;99390.64;1804254;79;21389;-80
2023/06/11 04:52:27;;;;;;;7.55;3.37;;;;;;;24.69;49.79;99390.91;1805743;79;21791;-80
2023/06/11 04:55:38;;;;;;;5.47;2.62;;;;;;;24.82;49.57;99386.05;1805849;79;21287;-80
2023/06/11 04:58:40;;;;;;;9.33;3.60;;;;;;;25.07;49.10;99398.14;1805067;79;21318;-81
2023/06/11 05:01:48;;;;;;;6.03;3.55;;;;;;;24.95;48.99;99408.33;1826372;76;21858;-81
2023/06/11 05:04:53;;;;;;;24.90;3.83;;;;;;;24.90;49.11;99401.38;1784878;80;21312;-81
2023/06/11 05:07:59;;;;;;;6.20;3.33;;;;;;;24.89;49.33;99403.88;1766943;81;21382;-81
2023/06/11 05:11:05;;;;;;;10.88;3.80;;;;;;;24.98;49.10;99409.98;1754882;81;21343;-81
2023/06/11 05:14:12;;;;;;;5.62;2.83;;;;;;;24.93;49.05;99416.16;1814255;79;21336;-81
2023/06/11 05:17:18;;;;;;;7.67;3.20;;;;;;;24.83;49.46;99422.67;1747674;81;21273;-81
2023/06/11 05:20:26;;;;;;;4.87;3.15;;;;;;;24.95;49.12;99416.72;1767012;81;21299;-81
2023/06/11 05:23:33;;;;;;;5.58;3.15;;;;;;;25.13;49.04;99423.59;1736864;82;21314;-81
2023/06/11 05:26:39;;;;;;;16.02;3.33;;;;;;;25.29;48.93;99424.27;1736792;82;21282;-82
2023/06/11 05:29:45;;;;;;;8.53;2.80;;;;;;;25.30;49.41;99421.17;1727522;81;21334;-81
2023/06/11 05:32:51;;;;;;;12.45;3.12;;;;;;;25.23;49.26;99422.92;1736595;82;21318;-81
2023/06/11 05:35:56;;;;;;;4.30;3.17;;;;;;;25.33;49.24;99418.36;1742454;82;21352;-81
2023/06/11 05:39:01;;;;;;;6.42;2.98;;;;;;;25.45;48.81;99417.38;1763123;81;21296;-81
2023/06/11 05:42:07;;;;;;;13.08;3.20;;;;;;;25.62;49.07;99414.95;1754360;81;21304;-81
2023/06/11 05:45:15;;;;;;;14.40;3.25;;;;;;;25.74;48.43;99422.39;1755764;81;21308;-81
2023/06/11 05:48:20;;;;;;;9.48;2.85;;;;;;;25.79;49.10;99415.92;1755890;81;21304;-81
2023/06/11 05:51:26;;;;;;;8.55;3.72;;;;;;;26.00;49.50;99413.69;1755673;81;21336;-81
2023/06/11 05:54:32;;;;;;;10.15;3.08;;;;;;;26.03;49.40;99403.30;1755881;81;21331;-80
2023/06/11 05:57:38;;;;;;;4.33;2.80;;;;;;;26.02;50.11;99403.03;1755875;81;21308;-80
2023/06/11 06:00:45;;;;;;;6.30;3.08;;;;;;;25.82;50.32;99410.27;1755723;81;21855;-80
2023/06/11 06:03:51;;;;;;;11.97;3.55;;;;;;;25.97;50.61;99408.67;1755894;81;21305;-80
2023/06/11 06:06:57;;;;;;;5.53;3.05;;;;;;;25.73;51.04;99402.48;1755523;81;21365;-80
2023/06/11 06:10:04;;;;;;;7.15;3.22;;;;;;;25.85;50.98;99396.52;1754938;81;21292;-81
2023/06/11 06:13:10;;;;;;;6.15;3.60;;;;;;;25.92;50.94;99403.14;1750323;81;21339;-81
2023/06/11 06:16:10;;;;;;;;;;;;;;;25.97;51.28;99395.53;1753323;82;21305;-81
2023/06/11 06:19:18;;;;;;;6.15;3.40;;;;;;;25.90;51.76;99397.02;1777739;80;20688;-81
2023/06/11 06:22:26;;;;;;;6.60;3.08;;;;;;;25.89;51.60;99392.55;1750206;82;21364;-81
2023/06/11 06:25:31;;;;;;;6.92;3.70;;;;;;;25.88;51.17;99397.33;1750574;82;21894;-81
2023/06/11 06:28:37;;;;;;;8.95;2.92;;;;;;;25.83;51.30;99392.33;1750649;82;21303;-81
2023/06/11 06:31:44;;;;;;;9.63;3.35;;;;;;;25.78;51.13;99395.20;1750663;82;21870;-81
2023/06/11 06:34:49;;;;;;;4.50;3.42;;;;;;;25.62;52.00;99393.13;1750644;82;21970;-81
2023/06/11 06:37:55;;;;;;;5.53;3.35;;;;;;;25.58;52.39;99387.28;1749962;82;21355;-81
2023/06/11 06:41:02;;;;;;;5.47;3.05;;;;;;;25.57;51.82;99394.02;1749433;82;21335;-81
2023/06/11 06:44:08;;;;;;;7.00;3.00;;;;;;;25.45;51.98;99394.98;1750636;82;21285;-81
2023/06/11 06:47:14;;;;;;;5.83;3.27;;;;;;;25.20;51.78;99391.32;1750657;82;21303;-80
2023/06/11 06:50:19;;;;;;;5.53;3.75;;;;;;;25.40;52.25;99392.23;1750002;82;21351;-80
2023/06/11 06:53:24;;;;;;;11.48;3.60;;;;;;;25.38;51.48;99408.51;1749982;82;21356;-81
2023/06/11 06:56:30;;;;;;;7.58;3.65;;;;;;;25.45;51.66;99407.58;1750761;82;21300;-81
2023/06/11 06:59:35;;;;;;;9.85;3.55;;;;;;;25.74;50.83;99411.19;1750868;82;22025;-81
2023/06/11 07:02:41;;;;;;;8.28;3.60;;;;;;;25.73;51.06;99417.06;1750818;82;21312;-80
2023/06/11 07:05:48;;;;;;;14.87;3.70;;;;;;;25.49;51.79;99408.66;1750867;82;22397;-80
2023/06/11 07:08:55;;;;;;;7.28;3.55;;;;;;;25.30;53.32;99414.74;1730093;82;21225;-80
2023/06/11 07:12:02;;;;;;;9.98;3.62;;;;;;;25.21;53.64;99408.95;1750850;82;21327;-80
2023/06/11 07:15:07;;;;;;;8.03;3.30;;;;;;;25.06;53.63;99411.30;1750748;82;21303;-80
2023/06/11 07:18:13;;;;;;;12.47;3.80;;;;;;;25.16;54.19;99408.43;1750906;82;21296;-80
2023/06/11 07:21:19;;;;;;;5.20;3.30;;;;;;;25.20;54.58;99417.91;1749867;82;21335;-80
2023/06/11 07:24:24;;;;;;;10.23;3.72;;;;;;;25.18;54.61;99417.38;1749615;82;21917;-80
2023/06/11 07:27:30;;;;;;;9.45;3.83;;;;;;;25.48;54.17;99415.39;1750739;82;21339;-79
2023/06/11 07:30:40;;;;;;;12.18;4.10;;;;;;;25.19;55.33;99421.02;1750677;82;21348;-82
2023/06/11 07:33:48;;;;;;;6.35;3.30;;;;;;;25.33;54.96;99430.95;1750826;82;21328;-80
2023/06/11 07:36:55;;;;;;;5.85;3.80;;;;;;;25.36;54.54;99446.59;1750907;82;21352;-80
2023/06/11 07:40:01;;;;;;;7.25;3.52;;;;;;;25.22;54.40;99449.25;1749394;82;21395;-80
2023/06/11 07:43:06;;;;;;;14.43;4.90;;;;;;;25.33;54.60;99453.34;1749386;82;21331;-79
2023/06/11 07:46:12;;;;;;;8.38;4.67;;;;;;;25.45;54.47;99463.56;1749370;82;21308;-80
2023/06/11 07:49:18;;;;;;;14.33;4.00;;;;;;;25.35;54.60;99460.87;1749357;82;21339;-80
2023/06/11 07:52:25;;;;;;;12.35;4.65;;;;;;;25.00;55.90;99462.83;1750866;82;21871;-80
2023/06/11 07:55:31;;;;;;;5.97;3.20;;;;;;;24.99;56.50;99477.38;1749331;82;21316;-80
2023/06/11 07:58:37;;;;;;;7.37;3.90;;;;;;;24.88;57.13;99477.73;1750691;82;21313;-78
2023/06/11 08:01:43;;;;;;;6.33;4.47;;;;;;;24.80;57.62;99483.97;1749901;82;21311;-80
2023/06/11 08:04:50;;;;;;;7.67;3.98;;;;;;;24.63;58.05;99494.96;1750996;81;21744;-79
2023/06/11 08:07:55;;;;;;;12.05;3.98;;;;;;;24.64;58.08;99499.42;1750828;82;21304;-79
2023/06/11 08:11:00;;;;;;;10.38;4.30;;;;;;;24.51;59.25;99491.66;1750503;82;21919;-80
2023/06/11 08:14:06;;;;;;;11.25;4.37;;;;;;;24.46;60.06;99496.72;1750384;80;21369;-81
2023/06/11 08:17:10;;;;;;;12.00;5.42;;;;;;;24.39;61.05;99505.99;1755643;81;21304;-81
2023/06/11 08:20:17;;;;;;;12.68;4.70;;;;;;;24.28;61.21;99499.30;1755595;81;21296;-81
2023/06/11 08:23:23;;;;;;;13.98;4.62;;;;;;;24.22;62.46;99517.48;1755597;81;21324;-82
2023/06/11 08:26:28;;;;;;;21.82;5.28;;;;;;;24.21;63.25;99520.00;1755625;81;21854;-82
2023/06/11 08:29:33;;;;;;;17.10;5.90;;;;;;;23.93;64.93;99517.86;1755491;81;21943;-81
2023/06/11 08:32:38;;;;;;;12.55;5.40;;;;;;;23.63;65.89;99511.20;1754310;81;21917;-80
2023/06/11 08:35:44;;;;;;;12.95;5.55;;;;;;;23.56;66.52;99500.05;1757100;81;22611;-80
2023/06/11 08:38:51;;;;;;;12.23;5.20;;;;;;;23.47;67.59;99486.65;1757423;81;21362;-79
2023/06/11 08:41:56;;;;;;;9.43;5.53;;;;;;;23.60;67.75;99483.02;1756551;81;21359;-80
2023/06/11 08:45:02;;;;;;;8.60;5.15;;;;;;;23.39;69.10;99476.08;1757137;81;21296;-79
2023/06/11 08:48:10;;;;;;;11.60;5.45;;;;;;;23.53;68.75;99479.12;1755741;81;21304;-79
2023/06/11 08:51:18;;;;;;;13.25;5.45;;;;;;;23.58;69.13;99478.28;1755657;81;21327;-79
2023/06/11 08:54:24;;;;;;;10.93;5.25;;;;;;;23.91;68.12;99477.66;1757066;81;21351;-80
2023/06/11 08:57:30;;;;;;;8.40;5.50;;;;;;;24.09;68.09;99475.34;1757143;81;21304;-79
2023/06/11 09:00:37;;;;;;;15.28;5.80;;;;;;;23.91;68.66;99475.44;1757183;81;21315;-80
2023/06/11 09:03:49;;;;;;;9.30;5.58;;;;;;;23.62;69.98;99470.46;1766928;80;21273;-80
2023/06/11 09:07:07;;;;;;;12.18;5.55;;;;;;;23.60;70.28;99471.28;1788283;80;21315;-80
2023/06/11 09:10:18;;;;;;;14.90;5.83;;;;;;;23.74;70.16;99469.34;1750097;82;21339;-80
2023/06/11 09:13:23;;;;;;;12.20;5.42;;;;;;;23.82;70.33;99451.45;1738376;82;21931;-80
2023/06/11 09:16:29;;;;;;;10.43;5.03;;;;;;;23.71;70.46;99454.84;1727267;82;21340;-80
2023/06/11 09:19:36;;;;;;;19.07;6.45;;;;;;;23.84;70.19;99463.16;1753095;81;21844;-80
2023/06/11 09:22:43;;;;;;;12.13;5.70;;;;;;;23.95;70.25;99469.56;1765690;81;21309;-80
2023/06/11 09:25:49;;;;;;;10.35;4.78;;;;;;;24.21;69.84;99461.89;1765580;81;21341;-81
2023/06/11 09:28:55;;;;;;;14.50;6.17;;;;;;;24.38;69.28;99476.38;1766322;81;21345;-81
2023/06/11 09:32:12;;;;;;;9.43;5.08;;;;;;;24.15;69.58;99484.00;1764805;81;21677;-80
2023/06/11 09:35:19;;;;;;;12.10;5.12;;;;;;;24.16;69.80;99479.52;1765703;81;21293;-80
2023/06/11 09:38:27;;;;;;;17.05;5.30;;;;;;;24.53;68.71;99480.22;1766302;81;21305;-80
2023/06/11 09:41:33;;;;;;;10.35;5.42;;;;;;;24.50;68.39;99501.74;1765006;81;21338;-80
2023/06/11 09:44:41;;;;;;;9.70;5.87;;;;;;;24.41;68.48;99500.11;1766405;81;21277;-80
2023/06/11 09:47:48;;;;;;;10.30;5.85;;;;;;;24.05;69.68;99489.07;1766330;81;21293;-80
2023/06/11 09:51:00;;;;;;;12.50;5.75;;;;;;;23.82;70.32;99503.10;1765115;81;21337;-80
2023/06/11 09:54:06;;;;;;;11.83;6.05;;;;;;;23.92;69.96;99492.46;1765138;81;21226;-80
2023/06/11 09:57:13;;;;;;;9.65;6.05;;;;;;;23.77;70.28;99495.30;1764632;81;21324;-80
2023/06/11 10:00:19;;;;;;;10.75;6.15;;;;;;;23.42;71.43;99487.22;1764763;81;21840;-81
2023/06/11 10:03:25;;;;;;;9.53;5.42;;;;;;;23.59;71.13;99488.33;1765424;81;21313;-80
2023/06/11 10:06:34;;;;;;;9.48;5.87;;;;;;;23.62;71.62;99492.80;1766316;81;21304;-80
2023/06/11 10:09:39;;;;;;;9.63;5.70;;;;;;;23.57;72.13;99490.55;1766510;81;21309;-80
2023/06/11 10:12:44;;;;;;;12.10;5.92;;;;;;;23.60;72.47;99503.38;1765920;81;21348;-80
2023/06/11 10:15:52;;;;;;;13.62;6.03;;;;;;;23.60;72.79;99503.95;1765695;81;21320;-80
2023/06/11 10:19:00;;;;;;;14.87;6.17;;;;;;;23.66;72.85;99503.67;1746193;81;21300;-80
2023/06/11 10:22:08;;;;;;;13.45;6.85;;;;;;;23.71;72.68;99508.41;1728409;83;21304;-80
2023/06/11 10:25:14;;;;;;;10.28;6.25;;;;;;;24.50;69.88;99491.39;1726962;83;21308;-80
2023/06/11 10:28:20;;;;;;;9.33;5.90;;;;;;;24.59;69.27;99493.86;1728386;83;21652;-80
2023/06/11 10:31:43;;;;;;;11.20;5.40;;;;;;;24.62;69.43;99475.13;1728264;83;21304;-80
2023/06/11 10:34:47;;;;;;;9.18;5.75;;;;;;;24.12;71.71;99473.39;1728634;82;21327;-81
2023/06/11 10:37:55;;;;;;;12.45;6.47;;;;;;;24.07;72.85;99471.45;1729442;83;21314;-80
2023/06/11 10:41:00;;;;;;;13.32;6.10;;;;;;;24.47;72.20;99464.05;1722473;83;21318;-80
2023/06/11 10:44:05;;;;;;;10.45;5.30;;;;;;;24.59;71.54;99458.91;1703901;83;21319;-81
2023/06/11 10:47:11;;;;;;;10.05;5.10;;;;;;;24.79;70.66;99461.30;1729794;83;21337;-81
2023/06/11 10:50:20;;;;;;;13.93;5.37;;;;;;;24.82;70.12;99451.77;1730053;83;21329;-81
2023/06/11 10:53:26;;;;;;;16.37;5.67;;;;;;;25.03;68.90;99444.07;1730353;83;21347;-81
2023/06/11 10:56:32;;;;;;;10.98;4.90;;;;;;;25.19;68.75;99456.82;1722726;83;21713;-80
2023/06/11 10:59:32;;;;;;;13.35;4.78;;;;;;;25.15;68.09;99438.94;1730844;83;21341;-81
2023/06/11 11:02:25;;;;;;;11.18;5.15;;;;;;;25.29;67.36;99441.06;1729751;83;21678;-81
2023/06/11 11:05:29;;;;;;;12.35;4.60;;;;;;;25.32;67.22;99439.09;1729313;83;21325;-81
2023/06/11 11:08:36;;;;;;;9.70;4.87;;;;;;;25.42;66.98;99441.78;1730636;83;21302;-81
2023/06/11 11:11:43;;;;;;;9.15;4.12;;;;;;;25.70;66.35;99444.28;1730749;83;21350;-81
2023/06/11 11:14:48;;;;;;;10.68;4.85;;;;;;;25.97;65.63;99447.90;1721702;83;21337;-81
2023/06/11 11:17:55;;;;;;;7.70;3.75;;;;;;;26.32;64.81;99442.98;1744859;81;21320;-81
2023/06/11 11:21:02;;;;;;;8.55;3.72;;;;;;;26.18;63.93;99441.48;1760608;81;21313;-81
2023/06/11 11:24:07;;;;;;;10.28;4.20;;;;;;;26.32;63.00;99435.98;1760106;81;21313;-81
2023/06/11 11:27:14;;;;;;;9.05;4.45;;;;;;;26.44;62.11;99432.17;1760650;81;21317;-81
2023/06/11 11:30:21;;;;;;;7.67;3.70;;;;;;;26.61;62.01;99425.47;1760537;81;21318;-81
2023/06/11 11:33:26;;;;;;;9.38;3.75;;;;;;;26.86;60.99;99429.01;1759417;81;21368;-81
2023/06/11 11:36:31;;;;;;;9.83;4.10;;;;;;;26.99;61.36;99428.23;1760653;81;21289;-80
2023/06/11 11:39:38;;;;;;;8.80;4.12;;;;;;;27.10;59.76;99428.38;1760612;81;21297;-80
2023/06/11 11:43:03;;;;;;;11.78;4.12;;;;;;;27.05;57.85;99420.56;1744853;81;21322;-80
2023/06/11 11:46:09;;;;;;;12.13;3.50;;;;;;;27.07;59.09;99414.09;1744381;81;21873;-80
2023/06/11 11:49:16;;;;;;;9.55;4.30;;;;;;;27.11;58.42;99420.79;1760440;81;21910;-81
2023/06/11 11:52:27;;;;;;;6.80;3.72;;;;;;;27.10;58.12;99415.75;1760330;81;21329;-81
2023/06/11 11:55:31;;;;;;;6.10;3.75;;;;;;;27.47;57.36;99418.97;1759582;81;21891;-81
2023/06/11 11:58:45;;;;;;;6.05;3.33;;;;;;;27.35;57.20;99432.70;1758655;81;21877;-81
2023/06/11 12:02:05;;;;;;;11.63;4.30;;;;;;;27.47;57.14;99423.77;1760662;81;21301;-80
2023/06/11 12:05:11;;;;;;;9.63;3.95;;;;;;;27.09;58.21;99428.09;1760180;81;21290;-80
2023/06/11 12:08:17;;;;;;;7.40;3.42;;;;;;;27.05;57.80;99431.78;1760023;81;21230;-80
2023/06/11 12:11:21;;;;;;;13.78;4.15;;;;;;;26.92;57.97;99436.23;1760760;81;21301;-80
2023/06/11 12:14:27;;;;;;;8.70;4.80;;;;;;;27.09;57.67;99441.30;1760518;81;21948;-80
2023/06/11 12:17:34;;;;;;;14.35;3.85;;;;;;;27.49;57.17;99434.12;1760705;81;21893;-80
2023/06/11 12:20:39;;;;;;;10.75;4.45;;;;;;;27.72;56.80;99430.34;1771346;81;21305;-80
2023/06/11 12:23:46;;;;;;;7.72;4.08;;;;;;;27.39;56.74;99424.50;1770456;81;21249;-80
2023/06/11 12:26:55;;;;;;;10.35;4.30;;;;;;;27.29;56.78;99428.87;1766645;81;21345;-80
2023/06/11 12:30:03;;;;;;;13.45;4.97;;;;;;;27.19;57.33;99432.69;1768987;81;21304;-80
2023/06/11 12:33:08;;;;;;;13.83;5.22;;;;;;;27.10;58.71;99449.43;1767295;81;21309;-82
2023/06/11 12:36:14;;;;;;;12.55;5.17;;;;;;;26.81;59.90;99458.55;1767707;81;21341;-81
2023/06/11 12:39:20;;;;;;;13.95;4.90;;;;;;;26.34;61.66;99465.92;1767735;81;21400;-80
2023/06/11 12:42:27;;;;;;;13.85;5.72;;;;;;;26.41;61.85;99470.04;1768765;81;21352;-81
2023/06/11 12:45:37;;;;;;;12.18;5.40;;;;;;;25.80;63.71;99478.38;1768012;81;21308;-81
2023/06/11 12:48:43;;;;;;;11.63;5.83;;;;;;;25.35;65.99;99479.06;1768853;81;21883;-81
2023/06/11 12:51:48;;;;;;;9.18;4.53;;;;;;;25.30;66.23;99481.91;1767344;81;21313;-80
2023/06/11 12:54:54;;;;;;;10.23;5.40;;;;;;;25.24;66.75;99478.33;1768768;81;21341;-80
2023/06/11 12:57:59;;;;;;;10.10;5.22;;;;;;;25.04;67.80;99477.91;1767204;81;21316;-80
2023/06/11 13:01:05;;;;;;;12.10;5.58;;;;;;;24.78;69.28;99480.04;1767294;81;21306;-80
2023/06/11 13:04:11;;;;;;;10.50;5.75;;;;;;;24.72;70.13;99471.42;1768810;81;21305;-80
2023/06/11 13:07:17;;;;;;;9.15;5.67;;;;;;;24.95;69.83;99469.86;1768752;81;21329;-80
2023/06/11 13:10:25;;;;;;;9.55;4.80;;;;;;;25.04;69.74;99477.08;1768774;81;21306;-80
2023/06/11 13:13:30;;;;;;;8.58;5.80;;;;;;;25.10;70.05;99474.53;1768750;81;21919;-80
2023/06/11 13:16:30;;;;;;;11.25;5.42;;;;;;;25.19;69.79;99475.58;1767274;81;21900;-80
2023/06/11 13:19:29;;;;;;;11.22;5.55;;;;;;;25.26;69.17;99462.63;1783687;77;21324;-80
2023/06/11 13:22:34;;;;;;;12.18;4.92;;;;;;;25.39;68.48;99464.75;1825070;78;21856;-80
2023/06/11 13:25:40;;;;;;;8.80;4.53;;;;;;;25.49;68.11;99465.48;1824931;78;21894;-81
2023/06/11 13:28:46;;;;;;;8.75;4.50;;;;;;;25.20;69.00;99472.47;1825051;78;21319;-81
2023/06/11 13:31:52;;;;;;;7.42;3.77;;;;;;;25.34;68.12;99474.59;1812650;78;21841;-80
2023/06/11 13:35:03;;;;;;;10.65;4.10;;;;;;;25.15;67.10;99473.92;1769684;80;21320;-80
2023/06/11 13:38:09;;;;;;;6.05;3.47;;;;;;;25.15;66.61;99472.52;1783924;78;21280;-80
2023/06/11 13:41:10;;;;;;;8.13;2.80;;;;;;;25.16;66.00;99468.59;1829292;78;21248;-80
2023/06/11 13:44:02;;;;;;;7.40;3.20;;;;;;;25.11;65.29;99470.59;1785927;80;21336;-80
2023/06/11 13:46:48;;;;;;;7.00;3.50;;;;;;;25.14;64.54;99475.05;1757584;81;22002;-80
2023/06/11 13:49:42;;;;;;;7.28;3.42;;;;;;;25.16;63.85;99468.59;1758752;81;21343;-80
2023/06/11 13:52:49;;;;;;;8.58;2.90;;;;;;;25.13;64.74;99466.39;1746738;81;21859;-80
2023/06/11 13:55:55;;;;;;;8.03;2.58;;;;;;;25.09;63.66;99476.50;1729729;83;21694;-80
2023/06/11 13:59:01;;;;;;;3.37;2.45;;;;;;;25.18;63.67;99473.34;1730161;83;21339;-80
2023/06/11 14:02:07;;;;;;;7.62;2.60;;;;;;;25.24;62.62;99476.36;1730091;83;21295;-80
2023/06/11 14:05:13;;;;;;;4.62;2.75;;;;;;;24.87;63.17;99483.89;1730567;83;21362;-80
2023/06/11 14:08:20;;;;;;;4.70;2.00;;;;;;;25.01;63.20;99481.27;1747411;81;21280;-80
2023/06/11 14:11:26;;;;;;;4.20;1.90;;;;;;;24.75;61.45;99491.83;1759201;81;21298;-80
2023/06/11 14:14:32;;;;;;;3.83;2.10;;;;;;;24.75;59.11;99498.81;1759285;81;21339;-80
2023/06/11 14:17:39;;;;;;;3.92;1.98;;;;;;;24.76;58.32;99495.45;1759578;81;21315;-81
2023/06/11 14:20:46;;;;;;;3.20;1.77;;;;;;;24.63;58.81;99503.34;1750810;80;21302;-80
2023/06/11 14:23:53;;;;;;;6.60;2.55;;;;;;;24.54;59.30;99509.83;1756725;81;21348;-80
2023/06/11 14:27:01;;;;;;;6.58;2.67;;;;;;;24.57;60.09;99493.89;1796441;80;21285;-80
2023/06/11 14:30:06;;;;;;;11.03;2.15;;;;;;;24.65;60.21;99487.11;1780337;80;21876;-80
2023/06/11 14:33:14;;;;;;;5.75;1.95;;;;;;;24.59;60.61;99487.44;1780485;80;21287;-80